Time;durP1;ratioP1;P1;durP2;ratioP2;P2;SDS_P1;SDS_P2;PMS_P1;PMS_P2;Temp;Humidity;BMP_temperature;BMP_pressure;BME280_temperature;BME280_humidity;BME280_pressure;Samples;Min_cycle;Max_cycle;Signal;HPM_P1;HPM_P2
2023/08/30 00:00:45;;;;;;;7.30;6.60;;;21.10;62.70;;;;;;5006586;28;20296;-46
2023/08/30 00:03:12;;;;;;;6.40;5.90;;;21.10;62.60;;;;;;5008621;28;20503;-44
2023/08/30 00:05:39;;;;;;;6.00;5.60;;;21.20;62.70;;;;;;5009961;28;20621;-45
2023/08/30 00:08:05;;;;;;;6.17;5.67;;;21.10;62.80;;;;;;5008586;28;20502;-44
2023/08/30 00:10:31;;;;;;;6.70;6.10;;;21.20;63.00;;;;;;5009528;28;21713;-44
2023/08/30 00:12:56;;;;;;;6.40;5.90;;;21.10;63.70;;;;;;5011590;28;20202;-45
2023/08/30 00:15:22;;;;;;;7.30;6.40;;;21.00;63.40;;;;;;5011231;28;20252;-46
2023/08/30 00:17:47;;;;;;;6.50;6.00;;;20.80;63.80;;;;;;5003852;28;20240;-46
2023/08/30 00:20:13;;;;;;;5.60;5.20;;;20.80;64.80;;;;;;5003977;28;20264;-47
2023/08/30 00:22:39;;;;;;;6.77;6.17;;;20.80;65.40;;;;;;5003053;28;20269;-45
2023/08/30 00:25:05;;;;;;;7.07;6.60;;;20.80;65.00;;;;;;5004922;28;20900;-44
2023/08/30 00:27:30;;;;;;;6.80;6.20;;;20.70;63.90;;;;;;5005061;28;20453;-46
2023/08/30 00:29:56;;;;;;;6.20;5.70;;;20.50;65.30;;;;;;5002312;28;20201;-44
2023/08/30 00:32:21;;;;;;;7.50;6.80;;;20.60;65.40;;;;;;5003173;28;20197;-45
2023/08/30 00:34:51;;;;;;;7.07;6.57;;;20.50;65.10;;;;;;5004463;28;20197;-44
2023/08/30 00:37:16;;;;;;;6.57;6.07;;;20.60;65.20;;;;;;5000883;28;20601;-46
2023/08/30 00:39:42;;;;;;;7.53;6.30;;;20.70;65.00;;;;;;5000508;28;20445;-48
2023/08/30 00:42:08;;;;;;;7.30;6.80;;;20.80;64.60;;;;;;5000061;28;20190;-46
2023/08/30 00:44:34;;;;;;;7.50;7.00;;;20.80;64.30;;;;;;5009996;28;20283;-46
2023/08/30 00:47:01;;;;;;;6.73;6.23;;;20.80;64.60;;;;;;5002847;28;20201;-45
2023/08/30 00:49:28;;;;;;;6.80;6.30;;;20.70;64.70;;;;;;5012356;28;20464;-45
2023/08/30 00:51:54;;;;;;;8.10;7.37;;;20.70;65.40;;;;;;5009562;28;20548;-45
2023/08/30 00:54:21;;;;;;;6.27;5.70;;;20.70;65.40;;;;;;5010445;28;20987;-47
2023/08/30 00:56:46;;;;;;;8.27;6.80;;;20.70;65.00;;;;;;5000781;28;20684;-46
2023/08/30 00:59:13;;;;;;;7.50;6.90;;;20.80;65.10;;;;;;5009370;28;20445;-45
2023/08/30 01:01:40;;;;;;;7.00;6.50;;;20.80;65.50;;;;;;5010807;28;20213;-45
2023/08/30 01:04:05;;;;;;;9.10;8.23;;;20.90;65.20;;;;;;5007113;28;20448;-46
2023/08/30 01:06:31;;;;;;;6.80;6.30;;;20.90;65.10;;;;;;5003421;28;20482;-48
2023/08/30 01:08:56;;;;;;;8.00;7.30;;;21.00;64.90;;;;;;5008494;28;20194;-46
2023/08/30 01:11:32;;;;;;;7.70;7.10;;;21.00;64.20;;;;;;5009629;28;20194;-46
2023/08/30 01:14:09;;;;;;;8.10;7.40;;;21.10;63.60;;;;;;5002880;28;20624;-46
2023/08/30 01:16:36;;;;;;;9.77;8.47;;;21.10;62.80;;;;;;5004179;28;20489;-48
2023/08/30 01:19:13;;;;;;;8.30;7.70;;;21.10;62.50;;;;;;5008234;28;20463;-45
2023/08/30 01:22:09;;;;;;;6.20;5.70;;;21.10;62.50;;;;;;5006109;28;20499;-45
2023/08/30 01:25:12;;;;;;;6.90;6.40;;;21.10;62.90;;;;;;4993769;28;20453;-47
2023/08/30 01:27:39;;;;;;;7.03;6.43;;;21.10;63.50;;;;;;5007394;28;20979;-45
2023/08/30 01:30:07;;;;;;;8.00;7.30;;;21.10;63.50;;;;;;5010706;28;20445;-47
2023/08/30 01:34:59;;;;;;;8.10;7.40;;;21.10;62.50;;;;;;5005697;28;20511;-46
2023/08/30 01:37:26;;;;;;;7.33;6.80;;;21.10;62.00;;;;;;5005218;28;20237;-47
2023/08/30 01:39:52;;;;;;;8.37;6.67;;;21.00;61.90;;;;;;5001677;28;20444;-47
2023/08/30 01:42:22;;;;;;;7.97;7.33;;;21.00;61.60;;;;;;4999469;28;20540;-49
2023/08/30 01:44:49;;;;;;;7.67;7.17;;;21.00;61.60;;;;;;5005644;28;20492;-47
2023/08/30 01:47:16;;;;;;;7.63;7.13;;;21.00;61.50;;;;;;5007000;28;20975;-47
2023/08/30 01:49:42;;;;;;;7.87;7.17;;;20.90;61.20;;;;;;4999379;28;20539;-46
2023/08/30 01:52:10;;;;;;;9.03;8.23;;;20.90;61.20;;;;;;5007046;28;20444;-45
2023/08/30 01:54:37;;;;;;;9.20;8.40;;;20.80;61.30;;;;;;5003870;28;20559;-45
2023/08/30 01:57:03;;;;;;;8.20;7.60;;;20.80;61.50;;;;;;5007037;28;20473;-47
2023/08/30 01:59:29;;;;;;;7.87;7.27;;;20.90;61.70;;;;;;5009986;28;20445;-46
2023/08/30 02:01:56;;;;;;;7.10;6.40;;;20.80;61.10;;;;;;5008851;28;20727;-49
2023/08/30 02:04:22;;;;;;;7.63;7.03;;;20.80;61.30;;;;;;5003829;28;20445;-46
2023/08/30 02:06:57;;;;;;;8.20;7.60;;;20.80;61.30;;;;;;4999364;28;21015;-50
2023/08/30 02:09:46;;;;;;;7.70;7.20;;;20.80;61.40;;;;;;5007402;28;20683;-46
2023/08/30 02:12:15;;;;;;;7.80;7.20;;;20.80;61.30;;;;;;4998974;28;20449;-46
2023/08/30 02:14:48;;;;;;;7.83;7.23;;;20.80;61.00;;;;;;4998528;28;20452;-45
2023/08/30 02:17:15;;;;;;;7.80;7.13;;;20.80;60.90;;;;;;5002993;28;21022;-49
2023/08/30 02:19:42;;;;;;;7.40;6.80;;;20.80;61.00;;;;;;5007627;28;20452;-45
2023/08/30 02:22:08;;;;;;;8.20;7.70;;;20.80;61.30;;;;;;5004358;28;20482;-47
2023/08/30 02:24:33;;;;;;;7.73;7.23;;;20.80;61.90;;;;;;5002405;28;20441;-46
2023/08/30 02:26:59;;;;;;;7.93;7.40;;;20.70;62.50;;;;;;5005234;28;20203;-45
2023/08/30 02:29:25;;;;;;;7.47;6.90;;;20.70;62.60;;;;;;5000976;28;20186;-45
2023/08/30 02:31:50;;;;;;;8.07;7.37;;;20.70;62.40;;;;;;5000431;28;20453;-47
2023/08/30 02:34:16;;;;;;;8.07;7.47;;;20.70;63.10;;;;;;5002389;28;20327;-48
2023/08/30 02:36:42;;;;;;;7.93;7.07;;;20.70;63.10;;;;;;4998726;28;20201;-46
2023/08/30 02:39:07;;;;;;;8.60;7.93;;;20.70;63.00;;;;;;5002821;28;20611;-46
2023/08/30 02:41:34;;;;;;;7.67;7.07;;;20.70;63.30;;;;;;5010349;28;20190;-45
2023/08/30 02:43:59;;;;;;;8.13;7.53;;;20.80;63.10;;;;;;5011870;28;20248;-46
2023/08/30 02:46:25;;;;;;;7.37;6.87;;;20.80;62.40;;;;;;5008876;28;20462;-50
2023/08/30 02:48:51;;;;;;;7.87;7.37;;;20.90;62.30;;;;;;5013699;28;20449;-46
2023/08/30 02:51:17;;;;;;;7.90;7.20;;;20.90;62.70;;;;;;5014195;28;20216;-48
2023/08/30 02:53:42;;;;;;;7.50;6.90;;;20.90;62.20;;;;;;5014648;28;20288;-46
2023/08/30 02:56:08;;;;;;;8.13;7.50;;;20.90;63.30;;;;;;5010670;28;20196;-46
2023/08/30 02:58:33;;;;;;;7.80;7.20;;;20.80;62.80;;;;;;5008154;28;20295;-49
2023/08/30 03:01:00;;;;;;;7.90;7.30;;;20.80;63.00;;;;;;5008836;28;20599;-46
2023/08/30 03:03:25;;;;;;;6.67;6.07;;;20.80;62.60;;;;;;4991222;28;20252;-45
2023/08/30 03:05:51;;;;;;;7.70;7.10;;;20.70;63.20;;;;;;5001096;28;20497;-47
2023/08/30 03:08:16;;;;;;;8.07;7.47;;;20.60;63.40;;;;;;5013968;28;20197;-45
2023/08/30 03:10:42;;;;;;;7.60;7.00;;;20.60;63.90;;;;;;5015100;28;20200;-45
2023/08/30 03:13:07;;;;;;;8.87;8.23;;;20.60;63.40;;;;;;5008791;28;20187;-46
2023/08/30 03:15:33;;;;;;;8.40;7.80;;;20.50;63.50;;;;;;5011993;28;20252;-47
2023/08/30 03:18:00;;;;;;;8.83;8.23;;;20.60;63.60;;;;;;5014199;28;20230;-51
2023/08/30 03:20:28;;;;;;;8.30;7.60;;;20.60;63.30;;;;;;5005750;28;20228;-47
2023/08/30 03:22:55;;;;;;;10.20;9.40;;;20.50;64.20;;;;;;5004992;28;20445;-45
2023/08/30 03:25:21;;;;;;;10.37;9.60;;;20.40;64.00;;;;;;5003080;28;20449;-47
2023/08/30 03:27:46;;;;;;;10.30;9.50;;;20.40;64.60;;;;;;5006117;28;20440;-47
2023/08/30 03:30:12;;;;;;;10.33;9.53;;;20.40;64.10;;;;;;5008220;28;20578;-46
2023/08/30 03:32:38;;;;;;;9.63;8.90;;;20.40;63.60;;;;;;5006128;28;20199;-46
2023/08/30 03:35:04;;;;;;;9.87;9.07;;;20.30;63.70;;;;;;5007942;28;20190;-45
2023/08/30 03:37:29;;;;;;;10.90;10.00;;;20.40;64.10;;;;;;5004349;28;20271;-46
2023/08/30 03:39:55;;;;;;;11.27;10.47;;;20.50;64.10;;;;;;5007260;28;20744;-47
2023/08/30 03:42:23;;;;;;;7.03;6.50;;;20.50;64.00;;;;;;5008436;28;20194;-45
2023/08/30 03:44:49;;;;;;;8.30;7.70;;;20.50;64.10;;;;;;5005632;28;20189;-45
2023/08/30 03:47:14;;;;;;;8.10;7.50;;;20.50;64.30;;;;;;5012374;28;20441;-46
2023/08/30 03:49:40;;;;;;;8.70;8.00;;;20.60;64.30;;;;;;5010566;28;20201;-45
2023/08/30 03:52:05;;;;;;;9.77;8.97;;;20.50;64.20;;;;;;5010598;28;20194;-45
2023/08/30 03:54:32;;;;;;;10.10;9.30;;;20.60;64.50;;;;;;5008076;28;20291;-45
2023/08/30 03:56:57;;;;;;;10.43;9.53;;;20.60;64.40;;;;;;5007674;28;20247;-47
2023/08/30 03:59:25;;;;;;;11.87;10.97;;;20.70;64.20;;;;;;5007259;28;20456;-47
2023/08/30 04:01:50;;;;;;;9.90;9.10;;;20.80;63.80;;;;;;5007656;28;20554;-49
2023/08/30 04:04:16;;;;;;;9.23;8.33;;;20.80;63.10;;;;;;5006585;28;20441;-46
2023/08/30 04:06:41;;;;;;;10.50;9.67;;;20.80;63.10;;;;;;5008035;28;20282;-48
2023/08/30 04:09:08;;;;;;;8.13;7.43;;;20.80;63.20;;;;;;5002588;28;20194;-48
2023/08/30 04:11:33;;;;;;;11.20;10.30;;;20.80;63.30;;;;;;5009215;28;20205;-50
2023/08/30 04:13:59;;;;;;;10.00;9.20;;;20.80;63.60;;;;;;5005088;28;20440;-48
2023/08/30 04:16:24;;;;;;;20.53;9.00;;;20.80;63.90;;;;;;5006856;28;20189;-45
2023/08/30 04:18:50;;;;;;;7.90;7.30;;;20.80;63.90;;;;;;5009482;28;20464;-50
2023/08/30 04:21:15;;;;;;;10.37;9.57;;;20.80;64.10;;;;;;4998490;28;20203;-48
2023/08/30 04:23:41;;;;;;;9.43;8.53;;;20.90;63.80;;;;;;5003122;28;20186;-50
2023/08/30 04:26:06;;;;;;;8.13;7.50;;;20.90;63.50;;;;;;5006295;28;20193;-49
2023/08/30 04:28:32;;;;;;;10.30;9.13;;;20.90;63.30;;;;;;5001379;28;20518;-47
2023/08/30 04:30:57;;;;;;;10.70;9.80;;;20.90;63.40;;;;;;5008404;28;20217;-49
2023/08/30 04:33:24;;;;;;;9.60;8.90;;;20.90;62.80;;;;;;5000808;28;20202;-45
2023/08/30 04:35:53;;;;;;;9.17;8.47;;;20.90;62.30;;;;;;5004146;28;20190;-49
2023/08/30 04:38:20;;;;;;;7.97;7.27;;;20.90;62.40;;;;;;4996368;28;20535;-46
2023/08/30 04:40:46;;;;;;;8.40;7.67;;;20.90;63.20;;;;;;5007064;28;20441;-46
2023/08/30 04:43:12;;;;;;;8.90;8.20;;;20.80;63.50;;;;;;5003842;28;20441;-49
2023/08/30 04:45:37;;;;;;;8.37;7.67;;;20.80;63.00;;;;;;5003583;28;20995;-50
2023/08/30 04:48:04;;;;;;;9.40;8.50;;;20.70;63.80;;;;;;5002929;28;20213;-46
2023/08/30 04:50:30;;;;;;;9.63;8.93;;;20.70;64.50;;;;;;5011699;28;20190;-46
2023/08/30 04:52:56;;;;;;;7.80;7.20;;;20.80;64.40;;;;;;5002031;28;20446;-52
2023/08/30 04:55:23;;;;;;;9.40;8.60;;;20.80;64.30;;;;;;5010165;28;20811;-49
2023/08/30 04:57:49;;;;;;;9.10;8.20;;;20.90;63.90;;;;;;5010590;28;20266;-50
2023/08/30 05:00:15;;;;;;;8.80;8.10;;;20.90;63.40;;;;;;5009505;28;20480;-48
2023/08/30 05:02:43;;;;;;;7.77;7.17;;;20.90;64.00;;;;;;5005769;28;20696;-45
2023/08/30 05:05:12;;;;;;;9.23;8.53;;;20.90;64.40;;;;;;5009941;28;20225;-50
2023/08/30 05:07:37;;;;;;;9.90;8.73;;;21.00;64.30;;;;;;5008119;28;20460;-51
2023/08/30 05:10:06;;;;;;;9.90;9.13;;;20.90;64.20;;;;;;5010117;28;20446;-47
2023/08/30 05:12:36;;;;;;;9.97;8.97;;;20.90;63.90;;;;;;5007380;28;20201;-49
2023/08/30 05:15:03;;;;;;;10.40;8.97;;;20.80;63.70;;;;;;5010998;28;20814;-45
2023/08/30 05:17:29;;;;;;;10.70;9.90;;;20.80;64.40;;;;;;5009437;28;20492;-47
2023/08/30 05:20:02;;;;;;;10.30;9.30;;;20.80;64.00;;;;;;5004590;28;20930;-48
2023/08/30 05:22:28;;;;;;;11.33;10.37;;;20.70;64.70;;;;;;5005921;28;20537;-46
2023/08/30 05:24:54;;;;;;;11.20;10.30;;;20.50;64.10;;;;;;5007161;28;20444;-47
2023/08/30 05:27:19;;;;;;;11.37;10.47;;;20.20;65.20;;;;;;5007001;28;20198;-49
2023/08/30 05:29:45;;;;;;;12.43;11.23;;;20.10;66.70;;;;;;5008691;28;20224;-47
2023/08/30 05:32:10;;;;;;;11.70;10.70;;;20.10;67.00;;;;;;5007026;28;21973;-48
2023/08/30 05:34:36;;;;;;;12.60;11.70;;;20.20;66.40;;;;;;5000453;28;20194;-48
2023/08/30 05:37:02;;;;;;;11.47;10.53;;;20.30;65.90;;;;;;5004957;28;20565;-47
2023/08/30 05:39:28;;;;;;;12.37;11.37;;;20.20;66.00;;;;;;5010205;28;20226;-47
2023/08/30 05:41:53;;;;;;;11.80;10.70;;;20.30;65.80;;;;;;5001823;28;20568;-45
2023/08/30 05:44:19;;;;;;;12.00;10.90;;;20.20;65.70;;;;;;5003512;28;20194;-47
2023/08/30 05:46:45;;;;;;;12.60;11.23;;;20.20;66.20;;;;;;5003810;28;20194;-46
2023/08/30 05:49:11;;;;;;;12.03;11.03;;;20.10;66.40;;;;;;5005190;28;22345;-47
2023/08/30 05:51:36;;;;;;;12.13;11.10;;;20.10;66.20;;;;;;5009166;28;20194;-50
2023/08/30 05:54:02;;;;;;;11.60;10.70;;;20.10;66.30;;;;;;5000490;28;20451;-45
2023/08/30 05:56:28;;;;;;;10.80;9.87;;;20.20;66.40;;;;;;5006719;28;20186;-46
2023/08/30 05:58:53;;;;;;;10.83;9.93;;;20.10;67.10;;;;;;5009491;28;20229;-47
2023/08/30 06:01:19;;;;;;;11.17;10.27;;;20.20;67.20;;;;;;5000517;28;20552;-46
2023/08/30 06:03:46;;;;;;;9.63;8.83;;;20.20;67.00;;;;;;5008988;28;20193;-48
2023/08/30 06:06:11;;;;;;;9.70;8.90;;;20.20;67.10;;;;;;5005961;28;20510;-47
2023/08/30 06:08:37;;;;;;;9.60;8.60;;;20.20;67.60;;;;;;5003549;28;20492;-47
2023/08/30 06:11:02;;;;;;;14.13;9.77;;;20.20;66.80;;;;;;5009212;28;20194;-46
2023/08/30 06:13:28;;;;;;;8.30;7.70;;;20.20;66.80;;;;;;5007216;28;20189;-47
2023/08/30 06:15:53;;;;;;;8.93;8.13;;;20.20;67.00;;;;;;5002721;28;20217;-45
2023/08/30 06:18:19;;;;;;;12.00;8.30;;;20.20;67.00;;;;;;5007508;28;20221;-46
2023/08/30 06:20:45;;;;;;;9.90;9.10;;;20.20;67.20;;;;;;5001149;28;20569;-45
2023/08/30 06:23:11;;;;;;;9.97;9.00;;;20.30;67.10;;;;;;5004920;28;20260;-45
2023/08/30 06:25:37;;;;;;;9.20;8.37;;;20.30;66.90;;;;;;5007173;28;20249;-45
2023/08/30 06:28:03;;;;;;;10.80;9.50;;;20.30;66.80;;;;;;5000608;28;20866;-47
2023/08/30 06:30:29;;;;;;;9.47;8.60;;;20.20;67.10;;;;;;5011495;28;20198;-47
2023/08/30 06:32:55;;;;;;;10.63;9.30;;;20.20;67.50;;;;;;5008538;28;20201;-47
2023/08/30 06:35:21;;;;;;;8.67;8.07;;;20.20;67.70;;;;;;5008615;28;20444;-46
2023/08/30 06:37:46;;;;;;;7.60;6.90;;;20.10;68.10;;;;;;5001908;28;20527;-46
2023/08/30 06:40:12;;;;;;;8.33;7.63;;;20.10;68.10;;;;;;5003604;28;20205;-46
2023/08/30 06:42:38;;;;;;;8.90;8.23;;;20.30;68.00;;;;;;5009157;28;20190;-46
2023/08/30 06:45:04;;;;;;;7.30;6.80;;;20.30;67.60;;;;;;5007875;28;20606;-46
2023/08/30 06:47:30;;;;;;;10.07;9.27;;;20.40;67.50;;;;;;5007692;28;20205;-47
2023/08/30 06:49:55;;;;;;;7.67;7.10;;;20.40;67.60;;;;;;5007919;28;20445;-47
2023/08/30 06:52:21;;;;;;;10.70;9.80;;;20.50;67.40;;;;;;5010613;28;20229;-46
2023/08/30 06:54:47;;;;;;;9.03;8.33;;;20.50;67.20;;;;;;4998726;28;20194;-50
2023/08/30 06:57:12;;;;;;;10.70;8.67;;;20.60;67.30;;;;;;5006486;28;20258;-47
2023/08/30 06:59:38;;;;;;;8.50;7.80;;;20.70;67.00;;;;;;5001865;28;20201;-49
2023/08/30 07:02:04;;;;;;;7.97;7.27;;;20.70;66.70;;;;;;5004034;28;20194;-47
2023/08/30 07:04:29;;;;;;;8.13;7.43;;;20.80;66.50;;;;;;5010385;28;20340;-46
2023/08/30 07:06:55;;;;;;;8.97;7.10;;;20.80;66.10;;;;;;5005457;28;20246;-48
2023/08/30 07:09:22;;;;;;;7.47;6.93;;;20.80;66.20;;;;;;5000537;28;20729;-46
2023/08/30 07:11:47;;;;;;;8.60;7.97;;;20.70;65.60;;;;;;5001613;28;20193;-46
2023/08/30 07:14:14;;;;;;;8.83;7.93;;;20.60;66.80;;;;;;5010722;28;20441;-48
2023/08/30 07:16:40;;;;;;;8.90;8.10;;;20.70;66.90;;;;;;4993175;28;20274;-46
2023/08/30 07:19:06;;;;;;;9.93;8.93;;;20.70;66.50;;;;;;5011612;28;20496;-46
2023/08/30 07:21:31;;;;;;;9.27;8.57;;;20.70;67.30;;;;;;5010287;28;20432;-45
2023/08/30 07:23:57;;;;;;;9.17;8.37;;;20.50;68.30;;;;;;5012312;28;20205;-45
2023/08/30 07:26:23;;;;;;;8.83;8.23;;;20.50;68.80;;;;;;5015049;28;20201;-47
2023/08/30 07:28:49;;;;;;;9.50;8.70;;;20.30;68.30;;;;;;5013376;28;20433;-46
2023/08/30 07:31:16;;;;;;;9.17;8.37;;;20.30;68.80;;;;;;5011133;28;20198;-49
2023/08/30 07:33:41;;;;;;;8.10;7.40;;;20.20;69.00;;;;;;4995678;28;20214;-48
2023/08/30 07:36:08;;;;;;;8.90;8.07;;;20.10;68.40;;;;;;4998751;28;20444;-46
2023/08/30 07:38:34;;;;;;;8.17;7.47;;;20.20;68.80;;;;;;5013794;28;20295;-46
2023/08/30 07:41:00;;;;;;;7.60;6.90;;;20.30;68.10;;;;;;5008551;28;20719;-45
2023/08/30 07:43:26;;;;;;;6.53;6.03;;;20.30;68.30;;;;;;5009835;28;20444;-46
2023/08/30 07:45:51;;;;;;;5.73;5.33;;;20.30;67.20;;;;;;5014956;28;20193;-45
2023/08/30 07:48:17;;;;;;;6.27;5.80;;;20.40;66.90;;;;;;5009655;28;20284;-46
2023/08/30 07:50:42;;;;;;;6.67;6.17;;;20.60;66.50;;;;;;5014859;28;20704;-46
2023/08/30 07:53:09;;;;;;;6.33;5.73;;;20.70;66.30;;;;;;5011743;28;20244;-46
2023/08/30 07:55:35;;;;;;;6.20;5.70;;;20.60;65.10;;;;;;5014104;28;20668;-46
2023/08/30 07:58:02;;;;;;;5.80;5.40;;;20.60;64.60;;;;;;5014418;28;20484;-45
2023/08/30 08:00:28;;;;;;;5.80;5.43;;;20.60;65.00;;;;;;5014756;28;20432;-49
2023/08/30 08:02:54;;;;;;;7.03;6.07;;;20.60;65.10;;;;;;5003984;28;20518;-48
2023/08/30 08:05:19;;;;;;;7.10;5.93;;;20.50;66.00;;;;;;5010362;28;20476;-46
2023/08/30 08:07:45;;;;;;;6.10;5.67;;;20.70;66.20;;;;;;5005378;28;20195;-47
2023/08/30 08:10:10;;;;;;;6.10;5.60;;;20.80;65.90;;;;;;5013240;28;20215;-45
2023/08/30 08:12:36;;;;;;;5.80;5.40;;;20.90;64.60;;;;;;5005119;28;20220;-46
2023/08/30 08:15:02;;;;;;;5.20;4.90;;;21.00;63.80;;;;;;5007274;28;20560;-48
2023/08/30 08:17:28;;;;;;;6.10;5.60;;;21.00;63.30;;;;;;5002265;28;20625;-47
2023/08/30 08:19:54;;;;;;;5.73;5.33;;;21.10;63.50;;;;;;5006338;28;20499;-46
2023/08/30 08:22:20;;;;;;;5.10;4.80;;;21.10;63.10;;;;;;5006336;28;20837;-48
2023/08/30 08:24:45;;;;;;;5.20;4.80;;;21.10;62.50;;;;;;5011485;28;20263;-46
2023/08/30 08:27:11;;;;;;;4.70;4.40;;;21.20;62.70;;;;;;5009880;28;20190;-48
2023/08/30 08:29:37;;;;;;;5.50;5.10;;;21.20;62.50;;;;;;5007971;28;20202;-46
2023/08/30 08:32:03;;;;;;;5.67;5.17;;;21.20;62.60;;;;;;4998176;28;20491;-47
2023/08/30 08:34:29;;;;;;;5.60;5.10;;;21.30;63.00;;;;;;5010611;28;20453;-48
2023/08/30 08:36:55;;;;;;;5.27;4.77;;;21.30;63.00;;;;;;4998615;28;20221;-46
2023/08/30 08:39:20;;;;;;;8.30;5.37;;;21.30;63.30;;;;;;4988045;28;20233;-46
2023/08/30 08:41:46;;;;;;;5.90;5.40;;;21.30;63.00;;;;;;5009387;28;20198;-46
2023/08/30 08:44:13;;;;;;;5.50;5.10;;;20.90;63.20;;;;;;5005815;28;20198;-47
2023/08/30 08:46:40;;;;;;;5.60;5.20;;;20.70;64.70;;;;;;5002558;28;20199;-46
2023/08/30 08:49:11;;;;;;;5.80;5.33;;;20.70;64.80;;;;;;5011755;28;20445;-46
2023/08/30 08:51:38;;;;;;;5.70;5.30;;;20.70;64.80;;;;;;4997970;28;20468;-46
2023/08/30 08:54:05;;;;;;;6.30;5.70;;;20.80;65.10;;;;;;5009111;28;20456;-48
2023/08/30 08:56:31;;;;;;;5.40;5.00;;;21.00;64.50;;;;;;5010530;28;20456;-46
2023/08/30 08:58:57;;;;;;;5.27;4.77;;;21.00;64.50;;;;;;5012445;28;20488;-46
2023/08/30 09:01:24;;;;;;;5.40;5.00;;;21.10;64.90;;;;;;5002302;28;20442;-47
2023/08/30 09:03:50;;;;;;;5.67;5.27;;;21.10;64.40;;;;;;5005915;28;20193;-46
2023/08/30 09:06:16;;;;;;;5.30;4.90;;;21.10;64.60;;;;;;4998718;28;20505;-48
2023/08/30 09:08:41;;;;;;;4.83;4.53;;;20.80;65.00;;;;;;5007598;28;22145;-48
2023/08/30 09:11:07;;;;;;;5.30;4.83;;;21.00;64.60;;;;;;5012872;28;20202;-47
2023/08/30 09:13:32;;;;;;;4.23;3.93;;;21.20;64.30;;;;;;5007108;28;20198;-49
2023/08/30 09:15:59;;;;;;;5.10;4.67;;;21.40;64.00;;;;;;5005056;28;20213;-46
2023/08/30 09:18:27;;;;;;;5.13;4.63;;;21.60;63.20;;;;;;5010200;28;20234;-46
2023/08/30 09:21:13;;;;;;;5.40;5.00;;;21.70;61.80;;;;;;5006274;28;20441;-46
2023/08/30 09:23:38;;;;;;;5.17;4.53;;;21.80;61.80;;;;;;4996474;28;23028;-47
2023/08/30 09:26:05;;;;;;;6.40;4.40;;;21.80;63.00;;;;;;5001082;28;20461;-48
2023/08/30 09:28:31;;;;;;;4.30;3.90;;;21.80;62.00;;;;;;4998812;28;20673;-46
2023/08/30 09:31:01;;;;;;;4.30;4.00;;;22.00;61.90;;;;;;4998373;28;20808;-48
2023/08/30 09:33:34;;;;;;;4.60;4.30;;;22.20;61.90;;;;;;4992011;28;20464;-47
2023/08/30 09:36:00;;;;;;;4.20;3.90;;;22.20;62.30;;;;;;5010480;28;20447;-49
2023/08/30 09:38:26;;;;;;;4.30;3.90;;;22.40;61.90;;;;;;5000833;28;20496;-47
2023/08/30 09:40:53;;;;;;;7.03;4.27;;;22.50;60.60;;;;;;5008117;28;20448;-46
2023/08/30 09:43:21;;;;;;;4.20;3.90;;;22.70;59.80;;;;;;5010561;28;20436;-46
2023/08/30 09:45:48;;;;;;;3.70;3.40;;;22.90;59.10;;;;;;5006495;28;20440;-47
2023/08/30 09:48:14;;;;;;;3.10;2.93;;;22.90;58.70;;;;;;5010878;28;20440;-47
2023/08/30 09:50:44;;;;;;;4.13;3.73;;;22.70;58.30;;;;;;5004990;28;20881;-50
2023/08/30 09:53:10;;;;;;;3.80;3.53;;;22.70;58.80;;;;;;5010762;28;20507;-50
2023/08/30 09:55:35;;;;;;;4.43;3.50;;;22.50;59.10;;;;;;5008183;28;20491;-47
2023/08/30 09:58:04;;;;;;;3.60;3.30;;;22.80;58.60;;;;;;5002907;28;20307;-49
2023/08/30 10:00:31;;;;;;;3.10;2.90;;;23.00;56.90;;;;;;4995000;28;20230;-47
2023/08/30 10:02:58;;;;;;;3.47;3.17;;;23.10;57.20;;;;;;4999272;28;20449;-50
2023/08/30 10:05:25;;;;;;;3.90;3.60;;;23.30;56.60;;;;;;4998104;28;20567;-47
2023/08/30 10:07:52;;;;;;;3.40;3.20;;;23.40;56.40;;;;;;5007620;28;20531;-50
2023/08/30 10:10:19;;;;;;;2.83;2.63;;;23.70;56.40;;;;;;5003834;28;20464;-51
2023/08/30 10:12:46;;;;;;;2.77;2.57;;;23.90;55.60;;;;;;5008729;28;20526;-47
2023/08/30 10:15:12;;;;;;;3.10;2.90;;;24.00;55.00;;;;;;5006140;28;20448;-47
2023/08/30 10:17:41;;;;;;;3.03;2.83;;;24.10;55.00;;;;;;5008487;28;20476;-50
2023/08/30 10:20:07;;;;;;;3.23;3.03;;;24.40;54.40;;;;;;5005952;28;20189;-47
2023/08/30 10:22:37;;;;;;;3.10;2.80;;;24.20;53.50;;;;;;5005919;28;20834;-50
2023/08/30 10:25:08;;;;;;;3.20;2.77;;;24.20;54.50;;;;;;5010745;28;20445;-48
2023/08/30 10:27:36;;;;;;;3.30;3.00;;;24.40;53.50;;;;;;5006744;28;20929;-48
2023/08/30 10:30:06;;;;;;;4.07;2.53;;;24.40;53.20;;;;;;5009619;28;20452;-46
2023/08/30 10:32:32;;;;;;;4.40;3.30;;;24.40;53.90;;;;;;4998205;28;20940;-48
2023/08/30 10:35:01;;;;;;;2.90;2.70;;;24.40;52.80;;;;;;5005960;28;20496;-48
2023/08/30 10:37:27;;;;;;;2.80;2.60;;;24.60;52.80;;;;;;5009031;28;20279;-52
2023/08/30 10:39:53;;;;;;;3.20;2.70;;;24.80;51.70;;;;;;5004865;28;20554;-47
2023/08/30 10:42:23;;;;;;;2.40;2.30;;;25.00;52.70;;;;;;4992072;28;20937;-51
2023/08/30 10:44:51;;;;;;;2.53;2.33;;;25.00;51.60;;;;;;4996402;28;20198;-50
2023/08/30 10:47:30;;;;;;;2.57;2.10;;;25.00;51.40;;;;;;5005625;28;20441;-49
2023/08/30 10:49:57;;;;;;;3.43;2.60;;;25.00;50.80;;;;;;5002504;28;20511;-51
2023/08/30 10:52:23;;;;;;;2.77;2.10;;;24.40;51.10;;;;;;5000986;28;20826;-50
2023/08/30 10:54:50;;;;;;;2.50;2.30;;;24.70;52.30;;;;;;5001972;28;20468;-50
2023/08/30 10:57:24;;;;;;;4.47;2.40;;;25.20;51.90;;;;;;5002177;28;20823;-50
2023/08/30 11:00:15;;;;;;;2.67;2.30;;;25.40;51.80;;;;;;5004975;28;20444;-47
2023/08/30 11:02:45;;;;;;;2.33;2.03;;;25.20;49.30;;;;;;5007494;28;20492;-48
2023/08/30 11:05:11;;;;;;;2.50;1.97;;;25.20;51.60;;;;;;5014848;28;20484;-48
2023/08/30 11:07:37;;;;;;;2.30;2.10;;;25.60;49.70;;;;;;5002840;28;20493;-51
2023/08/30 11:10:06;;;;;;;2.20;2.10;;;25.80;49.60;;;;;;5013143;28;20197;-52
2023/08/30 11:12:32;;;;;;;7.90;2.33;;;25.90;48.00;;;;;;5012861;28;20190;-47
2023/08/30 11:14:58;;;;;;;2.67;2.47;;;26.20;47.80;;;;;;5011463;28;20857;-47
2023/08/30 11:17:23;;;;;;;2.60;2.40;;;26.30;46.70;;;;;;5013360;28;20226;-50
2023/08/30 11:19:51;;;;;;;2.20;2.10;;;26.40;46.90;;;;;;5006200;28;20197;-51
2023/08/30 11:22:17;;;;;;;2.27;2.07;;;26.50;46.50;;;;;;5013501;28;20205;-48
2023/08/30 11:24:46;;;;;;;1.80;1.70;;;26.50;46.00;;;;;;5005486;28;20456;-53
2023/08/30 11:27:11;;;;;;;2.53;1.73;;;26.60;45.10;;;;;;4997050;28;20454;-52
2023/08/30 11:29:39;;;;;;;2.30;2.00;;;26.80;44.60;;;;;;5006991;28;20477;-49
2023/08/30 11:32:07;;;;;;;1.93;1.83;;;26.90;45.90;;;;;;5001322;28;20610;-52
2023/08/30 11:34:33;;;;;;;2.20;1.67;;;27.10;45.40;;;;;;5009799;28;20531;-49
2023/08/30 11:36:58;;;;;;;2.17;1.80;;;27.20;45.50;;;;;;5004003;28;20469;-53
2023/08/30 11:39:27;;;;;;;2.40;2.20;;;27.10;44.90;;;;;;5007058;28;20248;-51
2023/08/30 11:41:53;;;;;;;2.50;1.80;;;27.10;45.50;;;;;;5009204;28;20296;-50
2023/08/30 11:44:19;;;;;;;2.33;2.13;;;27.20;45.50;;;;;;4999100;28;20474;-51
2023/08/30 11:46:46;;;;;;;3.40;2.83;;;27.20;45.30;;;;;;5009292;28;20285;-50
2023/08/30 11:49:12;;;;;;;4.17;2.17;;;27.30;45.90;;;;;;5012590;28;20448;-52
2023/08/30 11:51:38;;;;;;;2.20;2.10;;;27.50;46.00;;;;;;5010171;28;20432;-49
2023/08/30 11:54:04;;;;;;;2.13;2.03;;;27.50;44.80;;;;;;5005640;28;21053;-51
2023/08/30 11:56:30;;;;;;;2.60;2.40;;;27.10;43.20;;;;;;5003945;28;20194;-52
2023/08/30 11:58:55;;;;;;;1.80;1.70;;;27.00;43.80;;;;;;5008092;28;20851;-51
2023/08/30 12:01:21;;;;;;;1.83;1.73;;;27.00;44.60;;;;;;5007808;28;20438;-48
2023/08/30 12:03:50;;;;;;;1.87;1.70;;;27.10;44.80;;;;;;5007724;28;21049;-51
2023/08/30 12:06:16;;;;;;;2.20;2.00;;;27.30;45.60;;;;;;5011468;28;20232;-52
2023/08/30 12:08:42;;;;;;;2.33;2.13;;;27.40;45.50;;;;;;5005946;28;20515;-49
2023/08/30 12:11:20;;;;;;;3.23;1.73;;;27.50;45.00;;;;;;5013431;28;20488;-48
2023/08/30 12:13:47;;;;;;;2.23;2.03;;;27.60;45.20;;;;;;5004981;28;20190;-47
2023/08/30 12:16:17;;;;;;;1.90;1.80;;;27.60;44.90;;;;;;5000251;28;20437;-51
2023/08/30 12:18:43;;;;;;;2.30;2.20;;;27.50;44.30;;;;;;5003531;28;20503;-49
2023/08/30 12:21:08;;;;;;;2.67;2.47;;;27.30;45.30;;;;;;5004247;28;20937;-47
2023/08/30 12:23:34;;;;;;;5.60;3.80;;;26.80;47.40;;;;;;5000552;28;20788;-46
2023/08/30 12:26:00;;;;;;;11.73;4.10;;;26.30;51.00;;;;;;5006859;28;20272;-47
2023/08/30 12:28:29;;;;;;;4.30;3.23;;;25.80;53.50;;;;;;5006454;28;20289;-49
2023/08/30 12:30:56;;;;;;;5.43;4.00;;;25.30;54.10;;;;;;5013070;28;20645;-47
2023/08/30 12:33:22;;;;;;;6.37;4.10;;;25.20;55.20;;;;;;5011224;28;20441;-46
2023/08/30 12:35:48;;;;;;;3.90;3.63;;;25.20;55.90;;;;;;5012174;28;20491;-48
2023/08/30 12:38:19;;;;;;;3.87;3.57;;;25.10;55.60;;;;;;5009472;28;20882;-49
2023/08/30 12:40:46;;;;;;;4.20;3.80;;;25.00;55.20;;;;;;5005541;28;20252;-46
2023/08/30 12:43:15;;;;;;;3.97;3.67;;;24.90;55.50;;;;;;5000347;28;20448;-52
2023/08/30 12:45:41;;;;;;;5.10;4.60;;;24.90;56.30;;;;;;5006040;28;20456;-47